Time;durP1;ratioP1;P1;durP2;ratioP2;P2;SDS_P1;SDS_P2;PMS_P1;PMS_P2;Temp;Humidity;BMP_temperature;BMP_pressure;BME280_temperature;BME280_humidity;BME280_pressure;Samples;Min_cycle;Max_cycle;Signal;HPM_P1;HPM_P2
2022/04/04 00:00:45;;;;;;;6.30;2.90;;;3.20;85.70;;;;;;5007434;28;20052;-45
2022/04/04 00:03:15;;;;;;;6.53;3.10;;;3.20;85.70;;;;;;5010583;28;20372;-43
2022/04/04 00:05:41;;;;;;;;;;;3.20;85.60;;;;;;5009038;28;20100;-46
2022/04/04 00:08:08;;;;;;;8.10;3.22;;;3.20;85.40;;;;;;5007492;28;19916;-43
2022/04/04 00:10:35;;;;;;;8.80;3.08;;;3.20;85.60;;;;;;5008973;28;20041;-46
2022/04/04 00:13:03;;;;;;;4.70;2.60;;;3.20;85.70;;;;;;5008632;28;20034;-43
2022/04/04 00:15:29;;;;;;;4.28;2.60;;;3.20;85.60;;;;;;5009415;28;20061;-46
2022/04/04 00:17:56;;;;;;;5.20;2.72;;;3.20;85.60;;;;;;5008549;28;20043;-43
2022/04/04 00:20:23;;;;;;;5.97;2.63;;;3.20;85.60;;;;;;5009620;28;20072;-46
2022/04/04 00:22:52;;;;;;;5.13;2.90;;;3.20;85.80;;;;;;5009518;28;20069;-45
2022/04/04 00:25:19;;;;;;;5.43;3.25;;;3.20;85.80;;;;;;5008639;28;20458;-44
2022/04/04 00:27:46;;;;;;;4.28;2.97;;;3.20;85.80;;;;;;5009196;28;20125;-45
2022/04/04 00:30:13;;;;;;;5.30;3.60;;;3.20;85.70;;;;;;5009234;28;20044;-44
2022/04/04 00:32:39;;;;;;;4.10;2.65;;;3.20;85.70;;;;;;5009122;28;20030;-43
2022/04/04 00:35:06;;;;;;;8.45;3.08;;;3.20;85.90;;;;;;5007997;28;20451;-44
2022/04/04 00:37:39;;;;;;;5.13;3.17;;;3.20;85.90;;;;;;5007945;28;20088;-44
2022/04/04 00:40:08;;;;;;;6.53;3.25;;;3.30;86.00;;;;;;5009158;28;20097;-48
2022/04/04 00:42:35;;;;;;;5.45;2.88;;;3.30;85.90;;;;;;5009026;28;20045;-46
2022/04/04 00:45:02;;;;;;;8.13;3.10;;;3.30;85.90;;;;;;5009118;28;20523;-43
2022/04/04 00:47:29;;;;;;;8.02;3.15;;;3.30;86.10;;;;;;5009228;28;20040;-48
2022/04/04 00:49:56;;;;;;;6.55;3.15;;;3.30;86.30;;;;;;5008779;28;20152;-43
2022/04/04 00:52:23;;;;;;;5.05;2.95;;;3.30;86.30;;;;;;5009032;28;20040;-43
2022/04/04 00:54:50;;;;;;;5.13;3.15;;;3.30;86.60;;;;;;5008534;28;20026;-48
2022/04/04 00:57:17;;;;;;;9.60;6.60;;;3.30;86.60;;;;;;5007893;28;20107;-43
2022/04/04 00:59:44;;;;;;;7.45;3.38;;;3.40;86.60;;;;;;5006003;28;20439;-43
2022/04/04 01:02:11;;;;;;;9.05;3.65;;;3.40;86.60;;;;;;5009839;28;20175;-43
2022/04/04 01:04:38;;;;;;;5.43;3.22;;;3.40;86.60;;;;;;5008310;28;20025;-44
2022/04/04 01:07:04;;;;;;;6.35;3.22;;;3.40;86.50;;;;;;5009143;28;20117;-43
2022/04/04 01:09:31;;;;;;;6.38;3.33;;;3.40;86.40;;;;;;5007858;28;20156;-43
2022/04/04 01:12:08;;;;;;;6.25;3.35;;;3.40;86.30;;;;;;5009794;28;20061;-44
2022/04/04 01:14:41;;;;;;;5.53;2.97;;;3.40;86.20;;;;;;5007580;28;20455;-44
2022/04/04 01:17:08;;;;;;;6.43;3.53;;;3.40;86.00;;;;;;5009281;28;20054;-44
2022/04/04 01:19:35;;;;;;;8.55;3.58;;;3.50;85.80;;;;;;5009887;28;20045;-46
2022/04/04 01:22:07;;;;;;;7.65;3.80;;;3.40;85.80;;;;;;5012511;28;20037;-45
2022/04/04 01:24:37;;;;;;;7.70;3.28;;;3.50;85.60;;;;;;5011632;28;20091;-43
2022/04/04 01:27:04;;;;;;;;;;;3.50;85.60;;;;;;5012546;28;20026;-43
2022/04/04 01:29:32;;;;;;;4.78;3.08;;;3.50;85.50;;;;;;5010929;28;19909;-44
2022/04/04 01:31:59;;;;;;;5.40;3.25;;;3.50;85.40;;;;;;5012560;28;20084;-43
2022/04/04 01:34:26;;;;;;;4.85;3.03;;;3.50;85.30;;;;;;5011622;28;20113;-47
2022/04/04 01:36:53;;;;;;;6.65;3.78;;;3.50;85.10;;;;;;5011896;28;20370;-46
2022/04/04 01:39:21;;;;;;;4.75;2.88;;;3.50;84.90;;;;;;5011907;28;20030;-46
2022/04/04 01:41:49;;;;;;;6.45;3.25;;;3.60;84.90;;;;;;5010050;28;20030;-48
2022/04/04 01:44:22;;;;;;;4.07;2.88;;;3.60;84.70;;;;;;5012269;28;20344;-45
2022/04/04 01:46:47;;;;;;;5.45;3.30;;;3.60;84.60;;;;;;5011414;28;20045;-43
2022/04/04 01:49:14;;;;;;;6.55;4.05;;;3.60;84.50;;;;;;5011326;28;20366;-45
2022/04/04 01:51:41;;;;;;;6.10;3.25;;;3.60;84.30;;;;;;5010674;28;20119;-46
2022/04/04 01:54:07;;;;;;;7.13;3.45;;;3.60;84.20;;;;;;5011781;28;20042;-44
2022/04/04 01:56:34;;;;;;;5.40;2.92;;;3.60;84.20;;;;;;5011674;28;20141;-46
2022/04/04 01:59:02;;;;;;;6.97;3.50;;;3.70;84.10;;;;;;5011533;28;20022;-45
2022/04/04 02:01:32;;;;;;;6.25;2.67;;;3.70;84.10;;;;;;5011685;28;20062;-43
2022/04/04 02:03:59;;;;;;;10.85;3.05;;;3.70;83.90;;;;;;5027056;28;20394;-45
2022/04/04 02:06:26;;;;;;;11.27;4.80;;;3.70;83.90;;;;;;5012016;28;20644;-47
2022/04/04 02:08:52;;;;;;;5.15;3.78;;;3.70;83.80;;;;;;5010564;28;20088;-46
2022/04/04 02:11:23;;;;;;;9.13;4.22;;;3.70;83.80;;;;;;5012163;28;20021;-46
2022/04/04 02:13:50;;;;;;;6.43;3.42;;;3.80;83.60;;;;;;5011823;28;20034;-45
2022/04/04 02:16:17;;;;;;;7.20;5.35;;;3.80;83.70;;;;;;5010740;28;20049;-45
2022/04/04 02:18:44;;;;;;;8.32;3.50;;;3.80;83.60;;;;;;5011357;28;20029;-43
2022/04/04 02:21:09;;;;;;;9.02;4.68;;;3.80;83.60;;;;;;5010492;28;20030;-46
2022/04/04 02:23:37;;;;;;;6.85;3.95;;;3.80;83.40;;;;;;5011425;28;20096;-43
2022/04/04 02:26:04;;;;;;;11.55;4.57;;;3.90;83.40;;;;;;5011484;28;20034;-49
2022/04/04 02:28:32;;;;;;;7.20;4.88;;;3.90;83.30;;;;;;5011158;28;20034;-48
2022/04/04 02:30:59;;;;;;;7.72;4.80;;;3.90;83.40;;;;;;5011406;28;20041;-45
2022/04/04 02:33:26;;;;;;;9.40;5.22;;;3.90;83.20;;;;;;5011541;28;20109;-46
2022/04/04 02:35:54;;;;;;;7.78;4.55;;;4.00;83.10;;;;;;5011203;28;20549;-44
2022/04/04 02:38:24;;;;;;;7.63;5.22;;;4.00;83.20;;;;;;5010037;28;20033;-46
2022/04/04 02:40:52;;;;;;;9.50;5.78;;;4.00;83.10;;;;;;4994380;28;20419;-46
2022/04/04 02:43:22;;;;;;;9.00;6.65;;;4.00;83.10;;;;;;5011996;28;20018;-49
2022/04/04 02:45:48;;;;;;;11.77;7.28;;;4.00;83.10;;;;;;5011108;28;20026;-45
2022/04/04 02:48:15;;;;;;;8.48;6.22;;;4.00;83.00;;;;;;5010665;28;20088;-43
2022/04/04 02:50:42;;;;;;;10.68;7.05;;;4.00;83.00;;;;;;5008443;28;20348;-45
2022/04/04 02:53:09;;;;;;;9.65;7.22;;;4.10;82.80;;;;;;5010223;28;20459;-44
2022/04/04 02:58:22;;;;;;;9.48;7.35;;;4.20;82.50;;;;;;5010277;28;20033;-48
2022/04/04 03:00:48;;;;;;;12.95;8.15;;;4.20;82.40;;;;;;5010273;28;20027;-45
2022/04/04 03:03:15;;;;;;;13.65;8.48;;;4.20;82.30;;;;;;5010942;28;20041;-47
2022/04/04 03:05:41;;;;;;;12.23;8.43;;;4.20;82.40;;;;;;5010782;28;20044;-48
2022/04/04 03:08:08;;;;;;;13.35;8.70;;;4.30;82.40;;;;;;4992185;28;20034;-43
2022/04/04 03:10:35;;;;;;;10.75;8.00;;;4.30;82.20;;;;;;5011115;28;20561;-49
2022/04/04 03:13:05;;;;;;;14.38;9.15;;;4.30;82.30;;;;;;5011139;28;20132;-44
2022/04/04 03:15:32;;;;;;;15.57;10.18;;;4.30;82.40;;;;;;5010097;28;20030;-44
2022/04/04 03:18:01;;;;;;;14.88;9.40;;;4.30;82.20;;;;;;5009713;28;20030;-44
2022/04/04 03:20:26;;;;;;;13.43;9.60;;;4.40;82.10;;;;;;5010477;28;20030;-46
2022/04/04 03:22:56;;;;;;;12.32;9.25;;;4.40;82.10;;;;;;5009892;28;20033;-44
2022/04/04 03:25:25;;;;;;;14.52;8.60;;;4.40;82.20;;;;;;5010681;28;20041;-43
2022/04/04 03:27:53;;;;;;;14.98;9.27;;;4.40;82.00;;;;;;5010318;28;20030;-46
2022/04/04 03:30:28;;;;;;;12.48;8.98;;;4.40;81.90;;;;;;5010213;28;20036;-45
2022/04/04 03:32:57;;;;;;;15.10;9.73;;;4.50;81.90;;;;;;5010104;28;20375;-44
2022/04/04 03:35:26;;;;;;;12.60;8.93;;;4.50;81.80;;;;;;5009096;28;20025;-44
2022/04/04 03:37:55;;;;;;;12.60;9.30;;;4.50;81.70;;;;;;5009611;28;20073;-45
2022/04/04 03:40:23;;;;;;;13.07;9.48;;;4.50;81.80;;;;;;5010202;28;20036;-44
2022/04/04 03:42:52;;;;;;;12.73;9.35;;;4.50;81.70;;;;;;4992880;28;20120;-45
2022/04/04 03:45:20;;;;;;;15.02;10.32;;;4.50;81.70;;;;;;5008839;28;20038;-45
2022/04/04 03:47:48;;;;;;;14.57;10.10;;;4.50;81.80;;;;;;5010374;28;20371;-44
2022/04/04 03:50:18;;;;;;;14.27;9.50;;;4.50;81.80;;;;;;5009142;28;20026;-45
2022/04/04 03:52:51;;;;;;;13.88;10.95;;;4.60;81.90;;;;;;5009903;28;20040;-48
2022/04/04 03:55:21;;;;;;;15.38;10.02;;;4.60;81.80;;;;;;5009190;28;20048;-44
2022/04/04 03:57:52;;;;;;;14.32;10.20;;;4.60;81.70;;;;;;5003251;28;20518;-44
2022/04/04 04:00:19;;;;;;;13.88;10.73;;;4.70;81.80;;;;;;5009421;28;20037;-44
2022/04/04 04:02:44;;;;;;;16.35;10.98;;;4.60;82.00;;;;;;5010660;28;20442;-45
2022/04/04 04:05:12;;;;;;;15.05;11.55;;;4.60;82.20;;;;;;5001088;28;20034;-46
2022/04/04 04:07:37;;;;;;;14.82;10.82;;;4.60;82.40;;;;;;5005459;28;20479;-44
2022/04/04 04:10:05;;;;;;;15.98;12.15;;;4.60;82.70;;;;;;5002632;28;20042;-43
2022/04/04 04:12:35;;;;;;;19.60;12.57;;;4.60;82.90;;;;;;5009244;28;20038;-44
2022/04/04 04:15:09;;;;;;;14.75;11.30;;;4.60;83.20;;;;;;5009906;28;20092;-44
2022/04/04 04:17:34;;;;;;;14.30;12.07;;;4.50;83.50;;;;;;5009238;28;20060;-42
2022/04/04 04:20:19;;;;;;;17.45;10.93;;;4.50;83.80;;;;;;5008376;28;20034;-41
2022/04/04 04:22:46;;;;;;;16.13;11.85;;;4.50;83.90;;;;;;5007704;28;20474;-43
2022/04/04 04:25:14;;;;;;;18.92;13.05;;;4.50;84.10;;;;;;4992193;28;20046;-41
2022/04/04 04:27:43;;;;;;;17.30;12.02;;;4.50;84.30;;;;;;5007636;28;20040;-41
2022/04/04 04:30:11;;;;;;;14.75;11.98;;;4.50;84.60;;;;;;5008431;28;20037;-44
2022/04/04 04:32:39;;;;;;;16.27;12.65;;;4.60;84.80;;;;;;5008635;28;20038;-42
2022/04/04 04:35:09;;;;;;;16.20;12.32;;;4.50;85.10;;;;;;5009659;28;20026;-46
2022/04/04 04:37:36;;;;;;;17.95;13.10;;;4.50;85.40;;;;;;5006411;28;20042;-45
2022/04/04 04:40:14;;;;;;;18.92;13.63;;;4.50;85.40;;;;;;5009533;28;20033;-47
2022/04/04 04:42:54;;;;;;;19.95;14.30;;;4.40;85.70;;;;;;5009101;28;20037;-49
2022/04/04 04:45:20;;;;;;;17.75;13.10;;;4.40;85.80;;;;;;5008443;28;20053;-54
2022/04/04 04:47:49;;;;;;;18.85;13.45;;;4.40;86.10;;;;;;5010301;28;20022;-52
2022/04/04 04:50:18;;;;;;;16.70;14.18;;;4.40;86.30;;;;;;4990681;28;20042;-53
2022/04/04 04:52:46;;;;;;;21.03;14.47;;;4.40;86.30;;;;;;5008994;28;20038;-54
2022/04/04 04:55:13;;;;;;;17.83;13.93;;;4.40;86.60;;;;;;5009796;28;20049;-52
2022/04/04 04:57:39;;;;;;;19.20;13.85;;;4.40;86.70;;;;;;5012407;28;20074;-54
2022/04/04 05:00:13;;;;;;;17.35;13.63;;;4.40;86.90;;;;;;5011490;28;20049;-58
2022/04/04 05:02:42;;;;;;;18.85;13.63;;;4.30;87.00;;;;;;5010948;28;20041;-55
2022/04/04 05:05:09;;;;;;;19.65;13.95;;;4.30;87.00;;;;;;5011147;28;20037;-51
2022/04/04 05:07:36;;;;;;;20.73;15.30;;;4.30;87.20;;;;;;5011235;28;20044;-55
2022/04/04 05:10:04;;;;;;;23.45;14.60;;;4.30;87.40;;;;;;5012241;28;20069;-57
2022/04/04 05:12:32;;;;;;;20.80;15.45;;;4.30;87.40;;;;;;5012815;28;20060;-58
2022/04/04 05:14:59;;;;;;;18.33;14.93;;;4.30;87.50;;;;;;5011304;28;20037;-60
2022/04/04 05:17:27;;;;;;;20.30;14.57;;;4.30;87.50;;;;;;5011423;28;20056;-57
2022/04/04 05:19:55;;;;;;;21.00;15.57;;;4.30;87.60;;;;;;5011216;28;20033;-59
2022/04/04 05:22:25;;;;;;;20.42;16.77;;;4.30;87.70;;;;;;5012120;28;20033;-59
2022/04/04 05:24:55;;;;;;;26.92;17.38;;;4.30;87.80;;;;;;5011821;28;20049;-56
2022/04/04 05:27:23;;;;;;;23.40;15.38;;;4.30;87.80;;;;;;5012399;28;20054;-59
2022/04/04 05:29:51;;;;;;;26.65;17.75;;;4.30;88.00;;;;;;5011797;28;20029;-58
2022/04/04 05:32:16;;;;;;;22.00;15.98;;;4.30;88.10;;;;;;5011270;28;20041;-59
2022/04/04 05:34:43;;;;;;;24.00;17.15;;;4.30;88.00;;;;;;5011458;28;20026;-59
2022/04/04 05:37:12;;;;;;;22.58;16.63;;;4.30;88.10;;;;;;5008208;28;20351;-56
2022/04/04 05:39:42;;;;;;;23.08;18.25;;;4.30;88.10;;;;;;5011027;28;20072;-59
2022/04/04 05:42:08;;;;;;;25.90;17.77;;;4.30;88.20;;;;;;5010228;28;20072;-59
2022/04/04 05:44:35;;;;;;;26.48;17.83;;;4.30;88.30;;;;;;5010219;28;20072;-57
2022/04/04 05:47:04;;;;;;;22.83;16.33;;;4.30;88.40;;;;;;5012541;28;20033;-56
2022/04/04 05:49:33;;;;;;;24.83;18.25;;;4.30;88.50;;;;;;5012198;28;20041;-59
2022/04/04 05:52:01;;;;;;;20.88;16.27;;;4.30;88.50;;;;;;5012792;28;20045;-59
2022/04/04 05:54:28;;;;;;;22.92;16.52;;;4.30;88.30;;;;;;5011362;28;20109;-60
2022/04/04 05:56:56;;;;;;;21.83;17.65;;;4.30;88.40;;;;;;5009329;28;20022;-58
2022/04/04 05:59:25;;;;;;;24.30;17.90;;;4.30;88.40;;;;;;5007950;28;20309;-57
2022/04/04 06:01:52;;;;;;;24.17;16.92;;;4.20;88.50;;;;;;5008832;28;20038;-58
2022/04/04 06:04:23;;;;;;;22.33;17.63;;;4.30;88.60;;;;;;5009368;28;20026;-58
2022/04/04 06:06:49;;;;;;;23.70;18.67;;;4.30;88.50;;;;;;5009753;28;20049;-57
2022/04/04 06:09:16;;;;;;;26.35;19.15;;;4.30;88.60;;;;;;5010305;28;20072;-59
2022/04/04 06:11:43;;;;;;;25.75;18.27;;;4.30;88.60;;;;;;5010813;28;20046;-55
2022/04/04 06:14:10;;;;;;;25.88;19.42;;;4.30;88.70;;;;;;5009642;28;20036;-58
2022/04/04 06:16:37;;;;;;;23.88;18.25;;;4.30;88.70;;;;;;5011351;28;20046;-56
2022/04/04 06:19:04;;;;;;;22.17;17.83;;;4.20;88.70;;;;;;5010778;28;20367;-59
2022/04/04 06:21:31;;;;;;;22.17;16.42;;;4.30;88.80;;;;;;5010564;28;20052;-59
2022/04/04 06:23:58;;;;;;;23.98;17.83;;;4.30;88.70;;;;;;5010907;28;20032;-59
2022/04/04 06:26:25;;;;;;;24.30;17.80;;;4.20;88.80;;;;;;5011412;28;20101;-61
2022/04/04 06:28:51;;;;;;;25.08;19.33;;;4.20;88.90;;;;;;5010485;28;20489;-62
2022/04/04 06:31:17;;;;;;;23.42;18.10;;;4.20;89.00;;;;;;5009054;28;20352;-60
2022/04/04 06:33:44;;;;;;;22.50;17.88;;;4.20;89.00;;;;;;5000599;28;20030;-63
2022/04/04 06:36:11;;;;;;;23.73;17.65;;;4.30;89.10;;;;;;5005411;28;20455;-62
2022/04/04 06:38:39;;;;;;;23.85;17.98;;;4.20;89.00;;;;;;4994091;28;20073;-62
2022/04/04 06:41:06;;;;;;;23.23;18.10;;;4.20;89.00;;;;;;5009533;28;20105;-63
2022/04/04 06:43:35;;;;;;;22.73;17.95;;;4.20;89.20;;;;;;5010468;28;20041;-62
2022/04/04 06:46:05;;;;;;;25.20;18.38;;;4.20;89.20;;;;;;5006127;28;20048;-63
2022/04/04 06:48:32;;;;;;;24.80;17.08;;;4.20;89.20;;;;;;5007257;28;20136;-63
2022/04/04 06:51:01;;;;;;;23.33;16.42;;;4.30;89.60;;;;;;5009937;28;20045;-62
2022/04/04 06:53:26;;;;;;;23.13;17.52;;;4.40;89.30;;;;;;5010967;28;20037;-63
2022/04/04 06:55:52;;;;;;;23.48;17.40;;;4.40;89.30;;;;;;5011154;28;20034;-63
2022/04/04 06:58:21;;;;;;;22.02;16.35;;;4.40;89.10;;;;;;5009907;28;20037;-64
2022/04/04 07:00:48;;;;;;;19.95;16.02;;;4.40;88.90;;;;;;5002146;28;20450;-63
2022/04/04 07:03:15;;;;;;;21.23;16.92;;;4.40;88.90;;;;;;4987430;28;20518;-63
2022/04/04 07:05:42;;;;;;;18.95;14.68;;;4.50;88.80;;;;;;5003153;28;20151;-63
2022/04/04 07:08:09;;;;;;;18.38;14.38;;;4.40;88.70;;;;;;5007223;28;20049;-63
2022/04/04 07:10:37;;;;;;;20.63;14.25;;;4.40;88.70;;;;;;5007364;28;20057;-62
2022/04/04 07:13:06;;;;;;;19.98;14.95;;;4.40;88.70;;;;;;5004949;28;20041;-63
2022/04/04 07:15:33;;;;;;;15.85;14.15;;;4.40;88.60;;;;;;5006081;28;20047;-63
2022/04/04 07:18:00;;;;;;;16.10;14.40;;;4.40;88.70;;;;;;5006656;28;20638;-62
2022/04/04 07:20:26;;;;;;;16.65;14.10;;;4.40;88.70;;;;;;5005884;28;20033;-62
2022/04/04 07:22:56;;;;;;;18.50;14.32;;;4.30;88.80;;;;;;5001989;28;20033;-62
2022/04/04 07:25:23;;;;;;;21.00;14.27;;;4.30;89.00;;;;;;5004852;28;20026;-63
2022/04/04 07:27:52;;;;;;;16.05;13.15;;;4.30;89.10;;;;;;5004182;28;20040;-63
2022/04/04 07:30:20;;;;;;;16.80;13.63;;;4.30;89.00;;;;;;5002184;28;20037;-62
2022/04/04 07:32:47;;;;;;;14.63;12.95;;;4.20;89.10;;;;;;5005716;28;20474;-63
2022/04/04 07:35:16;;;;;;;18.50;13.52;;;4.20;89.20;;;;;;5006251;28;20034;-63
2022/04/04 07:37:46;;;;;;;17.47;14.70;;;4.20;89.20;;;;;;5007119;28;20117;-63
2022/04/04 07:40:16;;;;;;;15.10;13.43;;;4.20;89.40;;;;;;5005875;28;20044;-64
2022/04/04 07:42:45;;;;;;;19.63;13.80;;;4.20;89.30;;;;;;5000243;28;20490;-63
2022/04/04 07:45:14;;;;;;;17.85;14.48;;;4.20;89.30;;;;;;5002596;28;20062;-63
2022/04/04 07:47:41;;;;;;;15.27;13.20;;;4.20;89.30;;;;;;5006650;28;20486;-63
2022/04/04 07:50:11;;;;;;;16.35;13.23;;;4.20;89.40;;;;;;5005262;28;20113;-63
2022/04/04 07:52:40;;;;;;;13.85;12.35;;;4.20;89.40;;;;;;5004481;28;20022;-62
2022/04/04 07:55:07;;;;;;;16.30;14.55;;;4.30;89.40;;;;;;5000718;28;20045;-62
2022/04/04 07:57:34;;;;;;;14.80;13.05;;;4.30;89.50;;;;;;5005489;28;20543;-61
2022/04/04 08:00:01;;;;;;;17.33;14.13;;;4.30;89.40;;;;;;5005103;28;20641;-62
2022/04/04 08:02:27;;;;;;;15.82;14.07;;;4.30;89.40;;;;;;5004432;28;20038;-61
2022/04/04 08:04:56;;;;;;;17.08;14.27;;;4.40;89.50;;;;;;5005934;28;20084;-62
2022/04/04 08:07:27;;;;;;;15.25;13.65;;;4.40;89.40;;;;;;5003788;28;20791;-62
2022/04/04 08:09:52;;;;;;;14.35;12.73;;;4.40;89.50;;;;;;5005101;28;20034;-62
2022/04/04 08:12:21;;;;;;;14.30;12.65;;;4.40;89.50;;;;;;5002545;28;20079;-62
2022/04/04 08:14:49;;;;;;;15.23;12.93;;;4.40;89.50;;;;;;5003560;28;20064;-63
2022/04/04 08:17:17;;;;;;;16.13;13.65;;;4.40;89.50;;;;;;5004947;28;20081;-63
2022/04/04 08:19:44;;;;;;;14.93;13.15;;;4.40;89.60;;;;;;5004684;28;20068;-62
2022/04/04 08:22:11;;;;;;;14.90;13.18;;;4.40;89.60;;;;;;5004673;28;20030;-63
2022/04/04 08:24:38;;;;;;;14.52;11.73;;;4.40;89.70;;;;;;5002737;28;20037;-63
2022/04/04 08:27:04;;;;;;;15.60;12.70;;;4.50;89.70;;;;;;5008037;28;20041;-63
2022/04/04 08:29:31;;;;;;;14.32;11.75;;;4.50;89.60;;;;;;4989186;28;20031;-63
2022/04/04 08:32:00;;;;;;;14.32;10.80;;;4.50;89.40;;;;;;4996676;28;20068;-63
2022/04/04 08:34:28;;;;;;;14.30;11.52;;;4.50;89.40;;;;;;4999663;28;20490;-62
2022/04/04 08:36:55;;;;;;;14.35;10.75;;;4.50;89.50;;;;;;4990988;28;20092;-63
2022/04/04 08:39:23;;;;;;;12.73;10.05;;;4.60;89.50;;;;;;4993277;28;20152;-63
2022/04/04 08:41:50;;;;;;;12.07;10.15;;;4.60;89.40;;;;;;5005023;28;20030;-62
2022/04/04 08:44:16;;;;;;;14.32;10.55;;;4.60;89.50;;;;;;5005087;28;20324;-62
2022/04/04 08:46:46;;;;;;;12.27;10.18;;;4.60;89.40;;;;;;5004489;28;20459;-62
2022/04/04 08:49:12;;;;;;;13.45;10.10;;;4.60;89.50;;;;;;5002853;28;20046;-63
2022/04/04 08:51:41;;;;;;;11.32;9.10;;;4.60;89.40;;;;;;5004381;28;20034;-63
2022/04/04 08:54:08;;;;;;;11.48;10.27;;;4.70;89.40;;;;;;5003994;28;20038;-62
2022/04/04 08:56:34;;;;;;;11.48;10.32;;;4.80;89.40;;;;;;5003850;28;20118;-62
2022/04/04 08:59:01;;;;;;;10.98;9.82;;;4.80;89.50;;;;;;5003031;28;20348;-59
2022/04/04 09:01:28;;;;;;;11.68;9.60;;;4.80;89.20;;;;;;5005653;28;20483;-61
2022/04/04 09:04:05;;;;;;;10.98;9.20;;;4.80;89.40;;;;;;5005189;28;20029;-62
2022/04/04 09:06:45;;;;;;;10.75;9.63;;;4.80;89.40;;;;;;5004820;28;20061;-62
2022/04/04 09:09:20;;;;;;;11.45;8.88;;;4.80;89.20;;;;;;5005910;28;20615;-62
2022/04/04 09:12:05;;;;;;;10.18;9.18;;;4.80;89.30;;;;;;5001336;28;20427;-62
2022/04/04 09:14:38;;;;;;;13.60;9.52;;;4.90;89.40;;;;;;5004620;28;20025;-62
2022/04/04 09:17:11;;;;;;;10.90;9.75;;;4.90;89.40;;;;;;5004031;28;20077;-62
2022/04/04 09:19:39;;;;;;;10.25;8.68;;;4.90;89.50;;;;;;5004644;28;20030;-63
2022/04/04 09:22:09;;;;;;;11.35;9.82;;;4.90;89.50;;;;;;5001343;28;20038;-63
2022/04/04 09:24:58;;;;;;;10.82;8.77;;;5.10;89.70;;;;;;5004648;28;20803;-62
2022/04/04 09:27:36;;;;;;;10.90;9.48;;;5.20;89.60;;;;;;5002591;28;20034;-63
2022/04/04 09:30:21;;;;;;;9.27;8.27;;;5.30;89.50;;;;;;5004964;28;20112;-63
2022/04/04 09:32:49;;;;;;;9.05;7.47;;;5.30;89.30;;;;;;5005644;28;20101;-63
2022/04/04 09:35:19;;;;;;;11.75;8.15;;;5.30;89.30;;;;;;5003748;28;20049;-63
2022/04/04 09:37:50;;;;;;;8.82;7.65;;;5.30;89.40;;;;;;5003765;28;20477;-64
2022/04/04 09:40:25;;;;;;;12.20;7.30;;;5.40;89.50;;;;;;5004533;28;20045;-63
2022/04/04 09:42:58;;;;;;;10.00;6.88;;;5.50;89.50;;;;;;5004434;28;20022;-63
2022/04/04 09:45:28;;;;;;;13.57;7.07;;;5.60;89.50;;;;;;5007715;28;20049;-63
2022/04/04 09:48:04;;;;;;;9.30;6.32;;;5.60;89.50;;;;;;5007122;28;20037;-62
2022/04/04 09:50:44;;;;;;;7.03;5.65;;;5.70;89.40;;;;;;5003782;28;20095;-59
2022/04/04 09:53:28;;;;;;;5.70;4.38;;;5.80;89.20;;;;;;5006689;28;20041;-60
2022/04/04 09:55:58;;;;;;;6.15;4.88;;;5.90;89.20;;;;;;5006982;28;20339;-61
2022/04/04 09:58:42;;;;;;;5.75;4.18;;;5.80;89.00;;;;;;5007882;28;20037;-60
2022/04/04 10:01:08;;;;;;;6.60;4.82;;;5.90;88.90;;;;;;5006771;28;20038;-60
2022/04/04 10:03:37;;;;;;;6.15;5.07;;;5.90;89.00;;;;;;5008614;28;20053;-61
2022/04/04 10:06:06;;;;;;;8.95;4.78;;;5.90;89.20;;;;;;5007591;28;20029;-63
2022/04/04 10:08:37;;;;;;;5.87;4.00;;;6.00;89.10;;;;;;5006818;28;20034;-62
2022/04/04 10:11:07;;;;;;;5.85;4.13;;;6.10;89.20;;;;;;5001561;28;20073;-63
2022/04/04 10:13:35;;;;;;;4.70;3.10;;;6.10;89.10;;;;;;4999504;28;20668;-63
2022/04/04 10:16:03;;;;;;;5.90;4.05;;;6.10;89.00;;;;;;5004034;28;20448;-63
2022/04/04 10:18:31;;;;;;;3.88;2.63;;;6.10;89.00;;;;;;5006992;28;20068;-63
2022/04/04 10:20:59;;;;;;;4.75;3.13;;;6.00;89.30;;;;;;5007479;28;20447;-64
2022/04/04 10:23:27;;;;;;;5.05;3.17;;;6.00;89.30;;;;;;5006277;28;20060;-64
2022/04/04 10:25:55;;;;;;;4.70;3.25;;;6.00;89.40;;;;;;5004044;28;20030;-64
2022/04/04 10:28:41;;;;;;;5.18;3.33;;;6.00;89.60;;;;;;5006050;28;20044;-64
2022/04/04 10:31:20;;;;;;;8.57;3.10;;;6.00;89.70;;;;;;5005632;28;20052;-64
2022/04/04 10:33:53;;;;;;;6.00;3.00;;;6.10;89.90;;;;;;5006476;28;20041;-65
2022/04/04 10:36:25;;;;;;;5.32;3.22;;;6.20;90.10;;;;;;5004165;28;20038;-65
2022/04/04 10:38:56;;;;;;;5.65;2.85;;;6.20;90.10;;;;;;5007315;28;20440;-63
2022/04/04 10:41:30;;;;;;;5.78;3.00;;;6.30;90.10;;;;;;5006796;28;20128;-62
2022/04/04 10:43:57;;;;;;;7.13;3.40;;;6.30;90.00;;;;;;5007527;28;20037;-62
2022/04/04 10:46:25;;;;;;;3.67;2.70;;;6.40;90.10;;;;;;5006138;28;20163;-63
2022/04/04 10:48:53;;;;;;;6.10;2.97;;;6.40;90.10;;;;;;5006772;28;20033;-64
2022/04/04 10:51:38;;;;;;;3.95;3.17;;;6.50;90.20;;;;;;5006090;28;20057;-64
2022/04/04 10:54:23;;;;;;;5.18;3.03;;;6.50;90.10;;;;;;5005740;28;20037;-63
2022/04/04 10:56:49;;;;;;;4.32;2.50;;;6.50;90.20;;;;;;5005382;28;20025;-63
2022/04/04 10:59:18;;;;;;;4.40;2.50;;;6.60;90.20;;;;;;5006428;28;20041;-63
2022/04/04 11:01:46;;;;;;;3.58;2.40;;;6.50;90.10;;;;;;5006405;28;20056;-64
2022/04/04 11:04:30;;;;;;;3.72;2.30;;;6.50;90.20;;;;;;5008226;28;20063;-64
2022/04/04 11:10:09;;;;;;;5.45;2.67;;;6.60;90.20;;;;;;5007960;28;20057;-65
2022/04/04 11:13:02;;;;;;;4.03;2.95;;;6.60;90.40;;;;;;5019578;28;20443;-65
2022/04/04 11:15:56;;;;;;;3.95;2.60;;;6.70;90.50;;;;;;5007192;28;20068;-65
2022/04/04 11:18:25;;;;;;;6.07;4.20;;;6.70;90.50;;;;;;5006008;28;20029;-64
2022/04/04 11:21:03;;;;;;;4.43;2.53;;;6.70;90.50;;;;;;5006376;28;20064;-64
2022/04/04 11:23:34;;;;;;;4.95;2.38;;;6.70;90.50;;;;;;5007126;28;20053;-65
2022/04/04 11:26:04;;;;;;;6.40;3.55;;;6.70;90.60;;;;;;5005916;28;20074;-65
2022/04/04 11:28:35;;;;;;;4.03;2.15;;;6.70;90.50;;;;;;5006685;28;20380;-65
2022/04/04 11:31:07;;;;;;;4.65;2.70;;;6.70;90.60;;;;;;5006640;28;20050;-65
2022/04/04 11:33:54;;;;;;;3.42;1.90;;;6.70;90.60;;;;;;5007194;28;20363;-65
2022/04/04 11:36:30;;;;;;;3.65;2.13;;;6.70;90.80;;;;;;5004338;28;20384;-66
2022/04/04 11:39:07;;;;;;;3.40;2.10;;;6.80;90.90;;;;;;5006007;28;20101;-64
2022/04/04 11:41:46;;;;;;;3.63;2.13;;;6.90;90.90;;;;;;5005473;28;20033;-65
2022/04/04 11:44:25;;;;;;;3.30;2.30;;;6.90;90.90;;;;;;5005236;28;20063;-66
2022/04/04 11:47:10;;;;;;;4.65;2.42;;;6.90;90.90;;;;;;5006465;28;20025;-65
2022/04/04 11:49:39;;;;;;;4.07;2.13;;;6.90;90.80;;;;;;4999406;28;20080;-65
2022/04/04 11:52:07;;;;;;;5.40;1.98;;;7.00;90.80;;;;;;5004633;28;20046;-65
2022/04/04 11:54:49;;;;;;;3.30;2.20;;;7.00;90.80;;;;;;5001487;28;20637;-65
2022/04/04 11:57:17;;;;;;;2.85;1.45;;;7.10;90.90;;;;;;5004417;28;20122;-65
2022/04/04 11:59:50;;;;;;;4.50;1.73;;;7.10;90.80;;;;;;5006240;28;20100;-65
2022/04/04 12:02:23;;;;;;;3.90;2.00;;;7.10;90.90;;;;;;5006715;28;20034;-65
2022/04/04 12:04:50;;;;;;;3.70;1.73;;;7.10;90.90;;;;;;5006894;28;20045;-65
2022/04/04 12:07:19;;;;;;;2.67;1.65;;;7.10;90.90;;;;;;5004340;28;20048;-65
2022/04/04 12:09:51;;;;;;;3.72;1.60;;;7.00;90.90;;;;;;5006916;28;20049;-66
2022/04/04 12:12:18;;;;;;;2.30;1.40;;;7.10;90.90;;;;;;5005208;28;20351;-65
2022/04/04 12:14:47;;;;;;;3.20;1.60;;;7.10;91.00;;;;;;5003951;28;20347;-64
2022/04/04 12:17:13;;;;;;;5.68;3.70;;;7.10;90.90;;;;;;5003643;28;20689;-66
2022/04/04 12:19:48;;;;;;;3.25;1.90;;;7.00;90.90;;;;;;5007123;28;20151;-65
2022/04/04 12:25:05;;;;;;;3.35;2.03;;;7.00;91.20;;;;;;5005531;28;20123;-65
2022/04/04 12:27:33;;;;;;;2.40;1.38;;;7.10;91.30;;;;;;5005430;28;20059;-65
2022/04/04 12:30:03;;;;;;;3.05;1.27;;;7.10;91.30;;;;;;5005966;28;20048;-66
2022/04/04 12:32:39;;;;;;;3.50;1.48;;;7.20;91.30;;;;;;4987992;28;20044;-66
2022/04/04 12:35:23;;;;;;;4.05;1.95;;;7.20;91.40;;;;;;5006751;28;20029;-65
2022/04/04 12:37:55;;;;;;;2.55;1.35;;;7.30;91.50;;;;;;5005484;28;20034;-64
2022/04/04 12:40:25;;;;;;;2.60;1.55;;;7.40;91.50;;;;;;5006328;28;20115;-65
2022/04/04 12:43:05;;;;;;;2.50;1.38;;;7.30;91.40;;;;;;5006275;28;20436;-65
2022/04/04 12:45:32;;;;;;;1.70;1.10;;;7.30;91.50;;;;;;5003937;28;20081;-64
2022/04/04 12:48:16;;;;;;;2.75;1.50;;;7.30;91.50;;;;;;5004902;28;20037;-65
2022/04/04 12:50:51;;;;;;;2.53;1.10;;;7.40;91.50;;;;;;5005753;28;20033;-66
2022/04/04 12:53:20;;;;;;;2.70;1.40;;;7.40;91.50;;;;;;5004538;28;20030;-65
2022/04/04 12:56:11;;;;;;;1.90;1.20;;;7.40;91.70;;;;;;5004606;28;20724;-66
2022/04/04 12:58:42;;;;;;;4.18;1.70;;;7.50;91.70;;;;;;5002550;28;20289;-66
2022/04/04 13:01:17;;;;;;;2.40;1.38;;;7.50;91.70;;;;;;5005736;28;20025;-66
2022/04/04 13:03:49;;;;;;;2.25;1.15;;;7.50;91.70;;;;;;5005077;28;20041;-65
2022/04/04 13:06:20;;;;;;;2.40;1.50;;;7.60;91.70;;;;;;5005275;28;20034;-65
2022/04/04 13:08:59;;;;;;;2.20;1.20;;;7.50;91.70;;;;;;5004656;28;20053;-65